Time;durP1;ratioP1;P1;durP2;ratioP2;P2;SDS_P1;SDS_P2;PMS_P1;PMS_P2;Temp;Humidity;BMP_temperature;BMP_pressure;BME280_temperature;BME280_humidity;BME280_pressure;Samples;Min_cycle;Max_cycle;Signal;HPM_P1;HPM_P2
2023/04/18 00:00:16;;;;;;;25.55;18.90;;;;;;;10.22;74.60;102515.31;5094910;28;20028;-44
2023/04/18 00:02:42;;;;;;;24.50;20.08;;;;;;;10.26;74.40;102500.69;5094281;28;20638;-43
2023/04/18 00:05:08;;;;;;;27.30;20.02;;;;;;;10.22;73.15;102510.63;5094369;28;20020;-45
2023/04/18 00:07:34;;;;;;;24.58;18.60;;;;;;;10.28;74.52;102498.50;5094895;28;20050;-45
2023/04/18 00:10:01;;;;;;;26.40;19.25;;;;;;;10.35;73.21;102505.72;5094633;28;20153;-43
2023/04/18 00:12:26;;;;;;;25.60;18.20;;;;;;;10.34;72.76;102504.91;5094728;28;20036;-44
2023/04/18 00:14:52;;;;;;;27.20;19.20;;;;;;;10.33;72.17;102499.66;5093192;28;20022;-44
2023/04/18 00:17:17;;;;;;;26.65;17.98;;;;;;;10.33;70.71;102500.47;5094308;28;20027;-44
2023/04/18 00:19:43;;;;;;;24.98;18.05;;;;;;;10.27;70.34;102496.81;5094485;28;20161;-43
2023/04/18 00:22:09;;;;;;;24.77;17.63;;;;;;;10.30;69.64;102503.75;5094514;28;20099;-43
2023/04/18 00:24:35;;;;;;;25.17;18.38;;;;;;;10.33;70.34;102506.00;5094304;28;20039;-44
2023/04/18 00:27:01;;;;;;;25.45;17.77;;;;;;;10.25;68.51;102492.66;5094335;28;20036;-43
2023/04/18 00:29:26;;;;;;;25.58;18.55;;;;;;;10.20;67.28;102492.63;5094453;28;20035;-43
2023/04/18 00:31:52;;;;;;;25.25;17.92;;;;;;;10.20;69.37;102495.41;5094118;28;20035;-43
2023/04/18 00:34:17;;;;;;;23.33;17.38;;;;;;;10.17;67.17;102504.22;5090358;28;20427;-46
2023/04/18 00:36:43;;;;;;;23.38;17.55;;;;;;;10.15;67.17;102501.72;5094218;28;20020;-43
2023/04/18 00:39:08;;;;;;;23.33;17.38;;;;;;;10.13;66.99;102504.72;5093932;28;20044;-43
2023/04/18 00:41:33;;;;;;;23.88;17.60;;;;;;;10.15;66.99;102504.47;5094087;28;20016;-43
2023/04/18 00:43:58;;;;;;;24.17;17.33;;;;;;;10.11;65.85;102497.78;5094112;28;20481;-46
2023/04/18 00:46:24;;;;;;;23.30;17.30;;;;;;;10.11;65.12;102506.09;5094061;28;20039;-45
2023/04/18 00:48:49;;;;;;;25.65;18.17;;;;;;;10.09;65.82;102500.84;5094162;28;20020;-44
2023/04/18 00:51:15;;;;;;;24.02;17.83;;;;;;;10.10;66.06;102499.75;5094118;28;20032;-43
2023/04/18 00:53:41;;;;;;;24.80;18.42;;;;;;;10.01;64.02;102504.06;5093755;28;20470;-45
2023/04/18 00:56:07;;;;;;;23.88;16.67;;;;;;;10.00;66.00;102502.41;5093183;28;20089;-45
2023/04/18 00:58:32;;;;;;;23.67;17.98;;;;;;;9.95;64.94;102486.59;5093694;28;20028;-47
2023/04/18 01:00:58;;;;;;;24.80;17.52;;;;;;;9.96;65.54;102488.28;5093596;28;20213;-44
2023/04/18 01:03:24;;;;;;;22.85;17.42;;;;;;;9.97;65.79;102497.38;5093700;28;20056;-44
2023/04/18 01:05:50;;;;;;;25.95;17.70;;;;;;;9.95;64.99;102492.13;5093704;28;20035;-45
2023/04/18 01:08:19;;;;;;;23.52;18.35;;;;;;;9.87;66.68;102489.81;5093616;28;20032;-44
2023/04/18 01:10:44;;;;;;;25.00;17.88;;;;;;;9.93;68.04;102505.38;5093666;28;20060;-46
2023/04/18 01:13:16;;;;;;;23.75;16.90;;;;;;;9.92;67.31;102491.81;5093392;28;20051;-45
2023/04/18 01:15:43;;;;;;;25.58;18.30;;;;;;;9.96;68.17;102495.72;5093378;28;20027;-47
2023/04/18 01:18:09;;;;;;;23.38;17.98;;;;;;;9.88;66.73;102496.19;5093582;28;20440;-43
2023/04/18 01:20:39;;;;;;;24.60;18.02;;;;;;;9.91;66.68;102493.72;5093463;28;20564;-44
2023/04/18 01:23:05;;;;;;;24.77;18.52;;;;;;;9.84;66.15;102491.16;5093242;28;20485;-47
2023/04/18 01:25:31;;;;;;;23.65;17.17;;;;;;;9.82;67.24;102484.25;5093439;28;20039;-44
2023/04/18 01:27:57;;;;;;;23.77;18.15;;;;;;;9.76;67.38;102499.94;5093261;28;20158;-47
2023/04/18 01:30:23;;;;;;;25.30;18.23;;;;;;;9.70;66.80;102483.56;5093206;28;20024;-45
2023/04/18 01:32:48;;;;;;;24.33;17.90;;;;;;;9.65;67.04;102487.09;5092972;28;20028;-46
2023/04/18 01:35:13;;;;;;;24.75;17.20;;;;;;;9.65;68.39;102481.56;5091829;28;20482;-44
2023/04/18 01:37:38;;;;;;;24.88;17.88;;;;;;;9.62;67.09;102485.69;5089673;28;20024;-45
2023/04/18 01:40:04;;;;;;;25.23;17.52;;;;;;;9.61;67.74;102483.19;5093093;28;20048;-45
2023/04/18 01:42:29;;;;;;;25.23;18.33;;;;;;;9.50;66.44;102472.03;5092588;28;20062;-43
2023/04/18 01:44:55;;;;;;;25.17;18.50;;;;;;;9.47;66.51;102480.00;5092841;28;20032;-45
2023/04/18 01:47:20;;;;;;;26.02;18.90;;;;;;;9.52;68.94;102477.28;5092859;28;20024;-46
2023/04/18 01:49:47;;;;;;;23.90;17.70;;;;;;;9.49;66.63;102478.66;5092868;28;20032;-44
2023/04/18 01:52:13;;;;;;;24.52;18.00;;;;;;;9.48;67.31;102478.91;5092663;28;20408;-47
2023/04/18 01:54:39;;;;;;;23.98;18.10;;;;;;;9.32;66.63;102464.09;5091436;28;20492;-46
2023/04/18 01:57:04;;;;;;;24.48;18.40;;;;;;;9.21;66.10;102466.72;5092697;28;20111;-44
2023/04/18 01:59:29;;;;;;;24.58;18.23;;;;;;;9.27;67.05;102464.84;5092411;28;20032;-44
2023/04/18 02:01:55;;;;;;;24.33;17.65;;;;;;;9.29;68.64;102479.25;5092624;28;20020;-43
2023/04/18 02:04:20;;;;;;;22.58;17.17;;;;;;;9.25;66.73;102471.75;5092525;28;20374;-46
2023/04/18 02:06:45;;;;;;;22.88;17.55;;;;;;;9.16;66.24;102469.41;5092467;28;20032;-43
2023/04/18 02:09:11;;;;;;;23.05;17.10;;;;;;;9.13;68.73;102480.13;5092368;28;20032;-45
2023/04/18 02:11:36;;;;;;;23.60;17.42;;;;;;;9.00;66.95;102470.28;5092049;28;20028;-46
2023/04/18 02:14:01;;;;;;;24.83;17.65;;;;;;;9.05;70.31;102470.38;5092234;28;20062;-44
2023/04/18 02:16:27;;;;;;;23.63;18.35;;;;;;;9.05;69.90;102473.13;5092415;28;20077;-46
2023/04/18 02:18:52;;;;;;;24.75;17.45;;;;;;;9.01;68.19;102472.81;5092301;28;20028;-44
2023/04/18 02:21:17;;;;;;;23.80;17.35;;;;;;;8.97;68.14;102457.84;5091845;28;20024;-44
2023/04/18 02:23:42;;;;;;;23.25;17.50;;;;;;;8.95;67.86;102473.81;5092198;28;20028;-46
2023/04/18 02:26:08;;;;;;;24.48;18.00;;;;;;;8.90;68.04;102465.50;5092116;28;20032;-44
2023/04/18 02:28:33;;;;;;;25.60;18.00;;;;;;;8.90;67.38;102471.81;5091907;28;20104;-43
2023/04/18 02:30:59;;;;;;;23.40;18.00;;;;;;;8.90;68.36;102462.72;5091984;28;20049;-43
2023/04/18 02:33:24;;;;;;;24.40;17.92;;;;;;;8.85;66.93;102463.50;5092076;28;20521;-43
2023/04/18 02:35:50;;;;;;;25.27;17.63;;;;;;;8.89;69.25;102461.88;5089537;28;20111;-46
2023/04/18 02:38:15;;;;;;;25.50;18.42;;;;;;;8.81;66.97;102465.06;5090348;28;20024;-47
2023/04/18 02:40:40;;;;;;;24.48;18.08;;;;;;;8.74;67.17;102461.66;5091987;28;20067;-47
2023/04/18 02:43:05;;;;;;;25.38;18.40;;;;;;;8.58;66.37;102466.97;5091755;28;20431;-44
2023/04/18 02:45:31;;;;;;;24.90;18.42;;;;;;;8.53;67.71;102460.53;5091789;28;20028;-44
2023/04/18 02:47:57;;;;;;;23.42;17.67;;;;;;;8.54;68.94;102460.28;5091691;28;20028;-46
2023/04/18 02:50:23;;;;;;;24.65;17.65;;;;;;;8.50;68.72;102461.84;5091700;28;20375;-44
2023/04/18 02:52:48;;;;;;;24.55;18.15;;;;;;;8.50;67.95;102464.63;5091756;28;20106;-46
2023/04/18 02:55:14;;;;;;;23.63;18.50;;;;;;;8.48;67.45;102466.81;5091552;28;20051;-45
2023/04/18 02:57:39;;;;;;;25.08;17.55;;;;;;;8.52;67.83;102465.22;5091657;28;20733;-43
2023/04/18 03:00:06;;;;;;;25.10;18.42;;;;;;;8.48;68.42;102450.25;5091601;28;20034;-45
2023/04/18 03:02:32;;;;;;;24.20;18.13;;;;;;;8.45;66.84;102464.53;5091580;28;20104;-47
2023/04/18 03:04:57;;;;;;;25.08;18.30;;;;;;;8.45;68.28;102466.47;5091584;28;20113;-45
2023/04/18 03:07:22;;;;;;;23.42;17.92;;;;;;;8.39;66.34;102465.53;5091508;28;20043;-46
2023/04/18 03:09:48;;;;;;;24.60;17.52;;;;;;;8.35;67.40;102456.09;5091610;28;20020;-44
2023/04/18 03:12:13;;;;;;;25.33;18.08;;;;;;;8.34;68.61;102465.44;5091435;28;20448;-44
2023/04/18 03:14:38;;;;;;;23.60;17.35;;;;;;;8.32;67.28;102462.94;5091387;28;20046;-44
2023/04/18 03:17:04;;;;;;;24.42;18.02;;;;;;;8.22;67.02;102452.56;5091535;28;20020;-47
2023/04/18 03:19:30;;;;;;;24.55;17.83;;;;;;;8.14;67.55;102450.22;5091357;28;20040;-45
2023/04/18 03:21:56;;;;;;;25.40;19.05;;;;;;;8.17;68.06;102458.00;5091371;28;20024;-43
2023/04/18 03:24:21;;;;;;;23.67;17.75;;;;;;;8.16;66.79;102461.03;5093378;28;20040;-43
2023/04/18 03:26:46;;;;;;;24.38;18.65;;;;;;;8.10;67.18;102460.94;5095493;28;20028;-43
2023/04/18 03:29:11;;;;;;;27.00;18.75;;;;;;;8.09;67.97;102459.25;5095559;28;20104;-43
2023/04/18 03:31:37;;;;;;;24.10;17.98;;;;;;;8.06;67.69;102461.69;5095213;28;20024;-43
2023/04/18 03:34:02;;;;;;;23.88;18.40;;;;;;;8.07;69.19;102466.09;5095225;28;20028;-47
2023/04/18 03:36:27;;;;;;;23.90;18.38;;;;;;;7.98;67.61;102457.44;5091120;28;20086;-47
2023/04/18 03:38:53;;;;;;;24.15;17.80;;;;;;;7.91;67.65;102459.47;5095265;28;20024;-47
2023/04/18 03:41:19;;;;;;;24.02;17.65;;;;;;;7.87;67.77;102464.66;5094968;28;20127;-46
2023/04/18 03:43:44;;;;;;;25.35;17.35;;;;;;;7.87;68.90;102467.41;5095137;28;20564;-47
2023/04/18 03:46:09;;;;;;;23.30;17.65;;;;;;;7.83;67.98;102463.50;5095164;28;20020;-43
2023/04/18 03:48:36;;;;;;;24.08;17.52;;;;;;;7.80;68.48;102475.81;5095122;28;20020;-47
2023/04/18 03:51:01;;;;;;;24.10;17.80;;;;;;;7.74;69.06;102471.31;5094904;28;20027;-44
2023/04/18 03:53:27;;;;;;;24.80;18.38;;;;;;;7.81;68.63;102479.44;5095073;28;20028;-43
2023/04/18 03:55:52;;;;;;;23.65;17.15;;;;;;;7.79;69.60;102478.84;5094792;28;20055;-44
2023/04/18 03:58:22;;;;;;;24.23;17.55;;;;;;;7.77;69.08;102473.59;5094880;28;20066;-44
2023/04/18 04:00:48;;;;;;;22.77;17.63;;;;;;;7.78;68.83;102468.91;5093708;28;20043;-43
2023/04/18 04:03:13;;;;;;;25.95;17.27;;;;;;;7.79;68.98;102473.34;5094468;28;20028;-44
2023/04/18 04:05:38;;;;;;;24.05;17.95;;;;;;;7.85;70.11;102469.56;5094598;28;20498;-47
2023/04/18 04:08:04;;;;;;;23.83;18.95;;;;;;;7.79;69.27;102465.06;5094294;28;20028;-45
2023/04/18 04:10:30;;;;;;;23.50;17.30;;;;;;;7.77;70.03;102469.97;5094667;28;20028;-45
2023/04/18 04:12:55;;;;;;;25.10;18.38;;;;;;;7.72;68.09;102467.97;5094760;28;20032;-47
2023/04/18 04:15:20;;;;;;;24.83;17.83;;;;;;;7.67;68.00;102470.63;5094615;28;20024;-44
2023/04/18 04:17:45;;;;;;;24.40;17.65;;;;;;;7.62;69.03;102474.13;5093224;28;20393;-44
2023/04/18 04:20:11;;;;;;;25.33;18.63;;;;;;;7.51;68.39;102475.00;5094462;28;20101;-44
2023/04/18 04:22:36;;;;;;;23.45;17.60;;;;;;;7.46;69.59;102483.19;5094450;28;20024;-43
2023/04/18 04:25:03;;;;;;;24.83;18.35;;;;;;;7.48;70.36;102478.25;5094433;28;20464;-43
2023/04/18 04:27:28;;;;;;;24.88;18.52;;;;;;;7.43;69.19;102476.22;5094536;28;20028;-43
2023/04/18 04:29:55;;;;;;;26.00;18.63;;;;;;;7.18;69.36;102455.38;5094452;28;20035;-45
2023/04/18 04:32:20;;;;;;;24.77;17.98;;;;;;;7.35;70.47;102476.63;5094234;28;20036;-44
2023/04/18 04:34:46;;;;;;;25.05;17.67;;;;;;;7.29;69.94;102474.84;5093653;28;20032;-44
2023/04/18 04:37:12;;;;;;;24.67;17.90;;;;;;;7.28;69.79;102484.19;5089745;28;20115;-44
2023/04/18 04:39:38;;;;;;;24.17;18.08;;;;;;;7.19;69.87;102475.47;5093977;28;20036;-44
2023/04/18 04:42:04;;;;;;;24.45;18.33;;;;;;;7.18;69.85;102480.13;5094178;28;20107;-47
2023/04/18 04:44:30;;;;;;;23.95;18.30;;;;;;;7.20;69.52;102487.31;5093894;28;20028;-44
2023/04/18 04:46:55;;;;;;;24.85;18.25;;;;;;;7.22;69.81;102483.25;5093996;28;20488;-44
2023/04/18 04:49:21;;;;;;;23.48;18.13;;;;;;;7.29;70.00;102486.69;5094036;28;20078;-44
2023/04/18 04:51:46;;;;;;;24.88;18.02;;;;;;;7.33;70.27;102496.16;5093924;28;20028;-44
2023/04/18 04:54:11;;;;;;;23.98;18.42;;;;;;;7.36;69.76;102494.00;5093902;28;20028;-45
2023/04/18 04:56:36;;;;;;;24.15;17.17;;;;;;;7.34;70.35;102496.97;5093801;28;20035;-44
2023/04/18 04:59:02;;;;;;;23.80;17.88;;;;;;;7.25;69.43;102488.28;5093905;28;20070;-44
2023/04/18 05:01:27;;;;;;;25.42;18.60;;;;;;;7.23;69.97;102493.16;5093407;28;20057;-46
2023/04/18 05:03:52;;;;;;;24.40;17.42;;;;;;;7.30;71.37;102488.34;5093780;28;20024;-44
2023/04/18 05:06:19;;;;;;;24.67;18.23;;;;;;;7.25;69.61;102498.44;5093826;28;20036;-44
2023/04/18 05:08:48;;;;;;;23.83;17.85;;;;;;;7.21;70.48;102489.81;5093658;28;20016;-46
2023/04/18 05:11:14;;;;;;;23.38;17.60;;;;;;;7.25;69.96;102490.16;5093662;28;20032;-45
2023/04/18 05:13:39;;;;;;;24.67;17.83;;;;;;;7.26;70.28;102489.09;5093706;28;20025;-47
2023/04/18 05:16:05;;;;;;;24.55;17.70;;;;;;;7.27;71.42;102494.38;5093515;28;20082;-45
2023/04/18 05:18:30;;;;;;;24.88;17.50;;;;;;;7.31;69.34;102501.06;5093514;28;20099;-45
2023/04/18 05:20:56;;;;;;;24.08;16.75;;;;;;;7.41;71.92;102500.44;5092064;28;20477;-48
2023/04/18 05:23:21;;;;;;;23.73;17.17;;;;;;;7.40;70.58;102495.16;5093515;28;20094;-46
2023/04/18 05:25:46;;;;;;;24.25;17.75;;;;;;;7.42;71.45;102502.09;5093553;28;20061;-44
2023/04/18 05:28:12;;;;;;;24.70;17.38;;;;;;;7.30;69.56;102498.56;5093387;28;20491;-45
2023/04/18 05:30:38;;;;;;;24.67;17.27;;;;;;;7.21;71.90;102495.31;5092305;28;20039;-44
2023/04/18 05:33:04;;;;;;;24.30;16.65;;;;;;;7.26;71.70;102505.59;5089257;28;20206;-46
2023/04/18 05:35:30;;;;;;;24.02;17.33;;;;;;;7.29;71.86;102505.13;5092732;28;20115;-45
2023/04/18 05:37:56;;;;;;;24.50;17.25;;;;;;;7.30;73.41;102502.13;5092904;28;20081;-45
2023/04/18 05:40:22;;;;;;;23.42;17.20;;;;;;;7.45;72.85;102512.63;5092906;28;20052;-47
2023/04/18 05:42:47;;;;;;;24.33;17.80;;;;;;;7.56;72.62;102510.91;5091650;28;20035;-44
2023/04/18 05:45:12;;;;;;;24.88;17.70;;;;;;;7.59;71.15;102507.66;5085758;28;20025;-45
2023/04/18 05:47:37;;;;;;;23.42;17.10;;;;;;;7.58;71.90;102514.25;5071568;28;20024;-44
2023/04/18 05:50:03;;;;;;;23.13;17.80;;;;;;;7.57;72.22;102511.75;5072534;28;20028;-45
2023/04/18 05:52:29;;;;;;;23.83;17.75;;;;;;;7.52;71.65;102512.50;5072558;28;20036;-45
2023/04/18 05:54:54;;;;;;;24.17;17.40;;;;;;;7.58;72.73;102513.44;5072417;28;20043;-44
2023/04/18 05:57:19;;;;;;;23.73;17.60;;;;;;;7.63;73.98;102525.38;5072579;28;20025;-45
2023/04/18 05:59:44;;;;;;;24.17;18.00;;;;;;;7.63;72.74;102521.78;5072429;28;20435;-46
2023/04/18 06:02:12;;;;;;;24.50;18.67;;;;;;;7.68;72.73;102529.31;5072373;28;20039;-45
2023/04/18 06:04:41;;;;;;;24.55;17.50;;;;;;;7.72;73.07;102527.75;5070878;28;20036;-44
2023/04/18 06:07:07;;;;;;;24.63;17.20;;;;;;;7.72;72.08;102522.25;5072292;28;20044;-45
2023/04/18 06:09:32;;;;;;;24.15;17.70;;;;;;;7.77;72.26;102528.69;5072379;28;20036;-45
2023/04/18 06:11:57;;;;;;;24.70;17.35;;;;;;;7.81;72.26;102524.34;5072218;28;20032;-44
2023/04/18 06:14:23;;;;;;;24.25;17.70;;;;;;;7.94;73.66;102534.22;5072063;28;20047;-43
2023/04/18 06:16:48;;;;;;;22.40;17.13;;;;;;;8.00;73.15;102529.66;5071984;28;20059;-47
2023/04/18 06:19:14;;;;;;;23.88;16.90;;;;;;;8.12;73.43;102535.13;5086325;28;20028;-44
2023/04/18 06:21:41;;;;;;;23.00;16.45;;;;;;;8.30;73.44;102523.00;5092164;28;20032;-43
2023/04/18 06:24:06;;;;;;;25.55;17.13;;;;;;;8.46;72.90;102531.53;5092175;28;20032;-44
2023/04/18 06:26:32;;;;;;;23.85;16.95;;;;;;;8.56;72.76;102531.75;5091950;28;20024;-46
2023/04/18 06:28:57;;;;;;;24.17;16.42;;;;;;;8.70;74.09;102532.22;5086588;28;20051;-47
2023/04/18 06:31:22;;;;;;;24.40;16.80;;;;;;;8.84;72.23;102538.25;5091767;28;20027;-44
2023/04/18 06:33:48;;;;;;;23.17;16.40;;;;;;;8.97;72.29;102531.56;5092095;28;20043;-44
2023/04/18 06:36:13;;;;;;;24.08;17.48;;;;;;;9.02;70.93;102529.69;5090204;28;20043;-45
2023/04/18 06:38:38;;;;;;;23.88;16.95;;;;;;;9.10;70.41;102535.88;5091874;28;20522;-45
2023/04/18 06:41:04;;;;;;;23.58;17.13;;;;;;;9.19;70.92;102537.09;5091567;28;20044;-44
2023/04/18 06:43:29;;;;;;;22.50;16.38;;;;;;;9.31;70.46;102532.28;5091667;28;20032;-45
2023/04/18 06:45:55;;;;;;;24.38;15.85;;;;;;;9.31;69.75;102537.81;5090777;28;20027;-45
2023/04/18 06:48:21;;;;;;;24.70;17.13;;;;;;;9.37;70.30;102541.47;5090615;28;20512;-45
2023/04/18 06:50:46;;;;;;;22.70;17.10;;;;;;;9.42;70.12;102541.56;5090395;28;20024;-47
2023/04/18 06:53:12;;;;;;;23.27;16.30;;;;;;;9.49;69.24;102544.13;5090533;28;20440;-44
2023/04/18 06:55:37;;;;;;;21.85;15.60;;;;;;;9.58;70.54;102548.09;5090666;28;20028;-45
2023/04/18 06:58:04;;;;;;;22.08;16.10;;;;;;;9.57;69.27;102540.06;5090445;28;20465;-45
2023/04/18 07:00:29;;;;;;;22.92;16.45;;;;;;;9.56;69.60;102546.66;5091502;28;20032;-45
2023/04/18 07:02:55;;;;;;;22.52;16.35;;;;;;;9.53;70.19;102556.31;5091775;28;20125;-45
2023/04/18 07:05:20;;;;;;;21.02;15.35;;;;;;;9.63;71.09;102547.34;5091618;28;20434;-48
2023/04/18 07:07:45;;;;;;;21.88;15.38;;;;;;;9.70;70.23;102550.72;5091666;28;20040;-46
2023/04/18 07:10:11;;;;;;;22.73;15.90;;;;;;;9.65;69.42;102545.13;5091579;28;20028;-48
2023/04/18 07:12:36;;;;;;;23.65;16.30;;;;;;;9.78;70.37;102554.94;5091555;28;20032;-44
2023/04/18 07:15:03;;;;;;;24.65;16.98;;;;;;;9.82;69.55;102558.88;5091391;28;20111;-45
2023/04/18 07:17:28;;;;;;;22.90;15.57;;;;;;;9.85;69.02;102555.59;5091495;28;20473;-46
2023/04/18 07:19:54;;;;;;;23.63;16.10;;;;;;;9.82;68.78;102547.81;5091512;28;20035;-47
2023/04/18 07:22:19;;;;;;;22.42;15.98;;;;;;;9.87;69.46;102560.84;5091409;28;20040;-44
2023/04/18 07:24:44;;;;;;;22.70;15.43;;;;;;;9.98;71.43;102554.34;5090191;28;20040;-44
2023/04/18 07:27:09;;;;;;;22.90;16.33;;;;;;;9.93;69.14;102560.66;5091508;28;20146;-46
2023/04/18 07:29:35;;;;;;;22.50;15.55;;;;;;;9.94;68.84;102565.09;5091460;28;20484;-47
2023/04/18 07:32:00;;;;;;;22.60;16.00;;;;;;;9.92;69.67;102560.94;5091269;28;20035;-44
2023/04/18 07:34:28;;;;;;;24.23;15.85;;;;;;;9.84;69.29;102549.22;5091318;28;20056;-44
2023/04/18 07:36:55;;;;;;;21.80;16.38;;;;;;;9.89;69.19;102548.44;5089602;28;20066;-45
2023/04/18 07:39:21;;;;;;;23.15;17.30;;;;;;;9.83;68.54;102558.59;5089673;28;20048;-44
2023/04/18 07:41:46;;;;;;;22.95;16.13;;;;;;;9.79;68.44;102565.75;5089666;28;20027;-43
2023/04/18 07:44:12;;;;;;;22.88;15.95;;;;;;;9.84;69.03;102570.50;5089777;28;20119;-43
2023/04/18 07:46:37;;;;;;;21.60;16.05;;;;;;;9.83;69.33;102568.84;5089902;28;20107;-44
2023/04/18 07:49:03;;;;;;;22.75;16.85;;;;;;;9.83;68.80;102564.13;5089462;28;20443;-43
2023/04/18 07:51:31;;;;;;;22.10;16.50;;;;;;;9.86;68.69;102562.81;5087966;28;20134;-44
2023/04/18 07:53:58;;;;;;;21.63;15.63;;;;;;;9.92;69.33;102572.81;5088298;28;20040;-43
2023/04/18 07:56:24;;;;;;;22.25;15.73;;;;;;;9.98;69.32;102573.72;5086220;28;20024;-44
2023/04/18 07:58:49;;;;;;;22.58;15.77;;;;;;;10.04;68.70;102571.84;5089474;28;20400;-45
2023/04/18 08:01:17;;;;;;;23.33;15.48;;;;;;;10.08;68.71;102572.97;5089453;28;20385;-43
2023/04/18 08:03:42;;;;;;;21.80;15.38;;;;;;;10.09;69.23;102566.34;5089740;28;20039;-45
2023/04/18 08:06:08;;;;;;;21.88;15.57;;;;;;;10.16;68.76;102572.50;5089657;28;20020;-43
2023/04/18 08:08:34;;;;;;;21.08;15.05;;;;;;;10.23;69.23;102575.91;5089648;28;20055;-44
2023/04/18 08:10:59;;;;;;;20.92;14.82;;;;;;;10.29;68.70;102579.56;5089693;28;20128;-44
2023/04/18 08:13:24;;;;;;;23.33;15.60;;;;;;;10.35;69.00;102581.28;5088989;28;20024;-44
2023/04/18 08:15:49;;;;;;;22.67;15.82;;;;;;;10.42;68.95;102581.09;5092894;28;20117;-43
2023/04/18 08:18:15;;;;;;;23.02;15.07;;;;;;;10.35;68.75;102572.97;5092437;28;20055;-43
2023/04/18 08:20:40;;;;;;;21.67;15.75;;;;;;;10.38;67.89;102575.25;5093001;28;20462;-42
2023/04/18 08:23:06;;;;;;;23.33;14.90;;;;;;;10.53;70.05;102580.06;5092970;28;20067;-44
2023/04/18 08:25:32;;;;;;;22.15;15.55;;;;;;;10.57;68.53;102572.91;5093380;28;20036;-43
2023/04/18 08:27:57;;;;;;;22.33;15.27;;;;;;;10.67;68.59;102577.72;5092706;28;20089;-43
2023/04/18 08:30:23;;;;;;;22.75;15.10;;;;;;;10.71;68.49;102578.84;5092686;28;20032;-43
2023/04/18 08:32:48;;;;;;;21.90;14.98;;;;;;;10.71;68.55;102592.69;5088206;28;20040;-44
2023/04/18 08:35:13;;;;;;;22.25;15.25;;;;;;;10.76;68.42;102584.44;5092484;28;20032;-44
2023/04/18 08:37:39;;;;;;;22.02;15.32;;;;;;;10.84;68.52;102579.50;5092630;28;20031;-44
2023/04/18 08:40:06;;;;;;;22.00;15.27;;;;;;;10.78;67.79;102578.63;5092134;28;20050;-43
2023/04/18 08:42:32;;;;;;;21.65;15.82;;;;;;;10.82;67.68;102576.16;5091496;28;20443;-43
2023/04/18 08:44:58;;;;;;;21.88;15.20;;;;;;;10.98;68.26;102574.34;5092504;28;20024;-44
2023/04/18 08:47:25;;;;;;;20.58;14.27;;;;;;;11.07;68.81;102573.56;5092317;28;20530;-43
2023/04/18 08:49:51;;;;;;;22.02;15.95;;;;;;;11.13;67.39;102570.84;5091335;28;20024;-43
2023/04/18 08:52:16;;;;;;;20.65;14.93;;;;;;;11.25;67.45;102565.91;5090925;28;20028;-44
2023/04/18 08:54:44;;;;;;;21.88;15.25;;;;;;;11.30;68.05;102568.72;5089749;28;20166;-43
2023/04/18 08:57:17;;;;;;;20.70;14.75;;;;;;;11.35;67.08;102573.44;5090897;28;20035;-43
2023/04/18 08:59:44;;;;;;;22.48;15.10;;;;;;;11.33;66.45;102570.09;5091127;28;20500;-43
2023/04/18 09:02:14;;;;;;;22.10;14.85;;;;;;;11.37;66.48;102571.25;5090880;28;20183;-44
2023/04/18 09:04:44;;;;;;;23.33;15.73;;;;;;;11.38;65.81;102567.38;5091378;28;20758;-43
2023/04/18 09:07:12;;;;;;;22.05;15.07;;;;;;;11.41;65.64;102560.47;5092393;28;20036;-44
2023/04/18 09:09:46;;;;;;;21.17;14.93;;;;;;;11.48;66.28;102552.72;5091981;28;20065;-43
2023/04/18 09:12:22;;;;;;;21.23;14.93;;;;;;;11.69;66.74;102557.25;5090578;28;20024;-43
2023/04/18 09:14:50;;;;;;;21.83;15.20;;;;;;;11.81;63.81;102554.25;5091950;28;20106;-43
2023/04/18 09:17:44;;;;;;;19.90;13.73;;;;;;;11.99;65.17;102550.16;5091908;28;20393;-43
2023/04/18 09:20:11;;;;;;;21.70;14.63;;;;;;;12.17;64.88;102550.75;5091761;28;20039;-44
2023/04/18 09:22:51;;;;;;;22.75;14.98;;;;;;;12.16;62.54;102547.13;5090712;28;20034;-44
2023/04/18 09:25:34;;;;;;;19.92;14.20;;;;;;;12.27;63.35;102539.66;5091551;28;20055;-44
2023/04/18 09:28:01;;;;;;;19.33;13.20;;;;;;;12.46;63.36;102555.78;5091754;28;20028;-44
2023/04/18 09:30:30;;;;;;;20.50;13.55;;;;;;;12.42;62.28;102569.34;5091637;28;20101;-43
2023/04/18 09:32:58;;;;;;;19.45;14.30;;;;;;;12.40;62.85;102568.81;5091510;28;20503;-44
2023/04/18 09:35:24;;;;;;;21.38;14.48;;;;;;;12.36;62.21;102564.91;5091423;28;20028;-43
2023/04/18 09:37:50;;;;;;;19.80;13.63;;;;;;;12.37;61.99;102574.09;5091555;28;20078;-44
2023/04/18 09:40:20;;;;;;;21.88;14.80;;;;;;;12.30;62.44;102564.06;5090030;28;20672;-43
2023/04/18 09:42:49;;;;;;;22.02;14.57;;;;;;;12.32;63.07;102563.81;5085651;28;20043;-42
2023/04/18 09:45:15;;;;;;;21.40;14.30;;;;;;;12.38;62.19;102562.69;5089806;28;20040;-43
2023/04/18 09:47:40;;;;;;;19.20;13.02;;;;;;;12.45;63.49;102560.47;5090026;28;20024;-43
2023/04/18 09:50:08;;;;;;;20.58;14.43;;;;;;;12.45;63.23;102543.00;5088653;28;20028;-44
2023/04/18 09:52:41;;;;;;;21.52;13.60;;;;;;;12.51;61.87;102566.84;5090344;28;20020;-43
2023/04/18 09:55:08;;;;;;;20.50;14.00;;;;;;;12.53;61.70;102559.09;5089493;28;20072;-43
2023/04/18 09:57:35;;;;;;;21.38;13.10;;;;;;;12.56;62.12;102569.66;5090927;28;20027;-43
2023/04/18 10:00:16;;;;;;;19.33;13.70;;;;;;;12.60;61.95;102565.19;5091160;28;20024;-43
2023/04/18 10:03:06;;;;;;;23.65;13.50;;;;;;;12.67;61.68;102559.38;5091071;28;20034;-44
2023/04/18 10:05:38;;;;;;;19.20;13.05;;;;;;;12.69;60.52;102572.97;5079577;28;20142;-46
2023/04/18 10:08:03;;;;;;;20.08;13.43;;;;;;;12.77;62.21;102550.19;5090827;28;20579;-44
2023/04/18 10:10:28;;;;;;;22.05;14.57;;;;;;;12.80;62.74;102561.56;5091070;28;20024;-45
2023/04/18 10:12:56;;;;;;;19.95;13.68;;;;;;;12.78;62.08;102552.69;5090832;28;20107;-44
2023/04/18 10:15:25;;;;;;;19.17;13.52;;;;;;;12.89;62.76;102561.03;5090613;28;20466;-43
2023/04/18 10:17:54;;;;;;;20.02;13.38;;;;;;;12.88;60.74;102565.72;5090745;28;20031;-44
2023/04/18 10:20:25;;;;;;;20.20;12.95;;;;;;;12.88;62.33;102565.72;5090638;28;20123;-44
2023/04/18 10:22:51;;;;;;;19.05;13.20;;;;;;;12.85;59.98;102563.50;5087382;28;20097;-43
2023/04/18 10:25:32;;;;;;;18.63;12.93;;;;;;;12.95;61.63;102565.44;5088963;28;20036;-44
2023/04/18 10:27:59;;;;;;;19.30;13.10;;;;;;;13.02;61.46;102559.59;5090181;28;20122;-45
2023/04/18 10:30:39;;;;;;;20.08;14.40;;;;;;;13.02;60.23;102565.97;5090142;28;20561;-44
2023/04/18 10:33:31;;;;;;;18.92;13.73;;;;;;;13.01;60.60;102558.75;5089984;28;20535;-44
2023/04/18 10:36:01;;;;;;;19.00;14.00;;;;;;;13.01;59.85;102558.75;5090623;28;20036;-46
2023/04/18 10:38:27;;;;;;;18.80;13.15;;;;;;;13.09;60.75;102557.38;5090682;28;20040;-46
2023/04/18 10:41:21;;;;;;;19.65;13.45;;;;;;;13.08;60.70;102559.28;5091070;28;20059;-44
2023/04/18 10:44:05;;;;;;;20.03;13.53;;;;;;;13.06;60.08;102563.47;5090723;28;20032;-43
2023/04/18 10:46:30;;;;;;;20.80;13.20;;;;;;;12.98;59.99;102555.72;5090519;28;20739;-43
2023/04/18 10:49:15;;;;;;;20.02;13.15;;;;;;;13.04;61.12;102551.81;5090360;28;20047;-43
2023/04/18 10:51:41;;;;;;;20.25;14.10;;;;;;;12.97;59.58;102545.72;5090155;28;20406;-43
2023/04/18 10:54:11;;;;;;;19.27;13.93;;;;;;;12.92;61.13;102539.06;5088754;28;20392;-44
2023/04/18 10:56:38;;;;;;;21.27;14.38;;;;;;;12.99;60.05;102549.88;5090226;28;20048;-44
2023/04/18 10:59:04;;;;;;;20.25;14.70;;;;;;;13.04;59.37;102549.88;5090324;28;20473;-44
2023/04/18 11:01:31;;;;;;;20.13;14.20;;;;;;;13.02;59.19;102546.53;5089939;28;20089;-43
2023/04/18 11:03:57;;;;;;;18.83;13.15;;;;;;;13.14;61.88;102553.75;5090344;28;20032;-43
2023/04/18 11:06:27;;;;;;;19.10;13.70;;;;;;;13.18;60.97;102552.91;5089900;28;20027;-43
2023/04/18 11:09:12;;;;;;;19.58;14.10;;;;;;;13.14;59.68;102559.28;5089895;28;20405;-43
2023/04/18 11:11:38;;;;;;;20.10;14.55;;;;;;;13.04;58.54;102544.31;5090151;28;20023;-44